createdAt,value
2022-09-17T00:00:10.081Z,24.73
2022-09-17T00:05:17.496Z,21.88
2022-09-17T00:10:20.477Z,24.23
2022-09-17T00:15:22.180Z,24.80
2022-09-17T00:20:27.463Z,19.10
2022-09-17T00:25:29.294Z,21.00
2022-09-17T00:30:34.274Z,21.30
2022-09-17T00:35:35.953Z,17.05
2022-09-17T00:40:42.708Z,21.70
2022-09-17T00:45:44.422Z,29.52
2022-09-17T00:50:48.537Z,21.23
2022-09-17T00:56:10.353Z,24.27
2022-09-17T01:01:16.923Z,30.08
2022-09-17T01:06:43.899Z,23.55
2022-09-17T01:12:03.873Z,23.77
2022-09-17T01:17:11.666Z,22.15
2022-09-17T01:22:24.985Z,27.75
2022-09-17T01:28:02.078Z,28.98
2022-09-17T01:33:10.102Z,28.23
2022-09-17T01:38:19.109Z,31.10
2022-09-17T01:43:26.216Z,26.27
2022-09-17T01:48:36.061Z,34.65
2022-09-17T01:53:58.821Z,27.67
2022-09-17T01:59:09.687Z,29.55
2022-09-17T02:04:23.447Z,23.67
2022-09-17T02:09:30.034Z,23.48
2022-09-17T02:14:38.992Z,31.85
2022-09-17T02:19:41.332Z,25.98
2022-09-17T02:24:50.133Z,20.13
2022-09-17T02:29:56.463Z,16.88
2022-09-17T02:35:06.431Z,15.35
2022-09-17T02:40:12.440Z,14.90
2022-09-17T02:45:35.846Z,18.90
2022-09-17T02:50:58.430Z,17.30
2022-09-17T02:56:38.090Z,15.00
2022-09-17T03:01:46.196Z,17.42
2022-09-17T03:06:48.180Z,20.27
2022-09-17T03:11:49.897Z,19.83
2022-09-17T03:16:53.882Z,25.85
2022-09-17T03:21:57.875Z,25.98
2022-09-17T03:27:01.722Z,14.95
2022-09-17T03:32:06.013Z,10.30
2022-09-17T03:37:12.830Z,12.13
2022-09-17T03:42:16.250Z,10.52
2022-09-17T03:47:20.155Z,19.00
2022-09-17T03:52:26.712Z,11.63
2022-09-17T03:57:35.772Z,16.40
2022-09-17T04:02:40.616Z,15.27
2022-09-17T04:07:44.853Z,16.20
2022-09-17T04:12:46.599Z,27.77
2022-09-17T04:17:51.353Z,17.75
2022-09-17T04:22:54.317Z,18.52
2022-09-17T04:27:58.254Z,20.67
2022-09-17T04:33:02.240Z,27.30
2022-09-17T04:38:03.901Z,30.10
2022-09-17T04:43:07.854Z,29.70
2022-09-17T04:48:09.604Z,18.13
2022-09-17T04:53:13.591Z,21.17
2022-09-17T04:58:17.625Z,32.17
2022-09-17T05:03:21.640Z,21.90
2022-09-17T05:08:28.868Z,19.52
2022-09-17T05:13:30.559Z,22.70
2022-09-17T05:18:32.266Z,22.60
2022-09-17T05:23:39.274Z,17.57
2022-09-17T05:28:43.244Z,18.83
2022-09-17T05:33:52.818Z,20.60
2022-09-17T05:38:55.006Z,19.92
2022-09-17T05:43:56.682Z,19.83
2022-09-17T05:49:03.554Z,23.57
2022-09-17T05:54:06.884Z,23.80
2022-09-17T05:59:15.873Z,17.17
2022-09-17T06:04:20.504Z,26.63
2022-09-17T06:09:28.560Z,22.55
2022-09-17T06:14:34.594Z,26.08
2022-09-17T06:19:40.880Z,21.10
2022-09-17T06:24:43.613Z,17.95
2022-09-17T06:29:47.454Z,25.52
2022-09-17T06:34:50.737Z,18.90
2022-09-17T06:39:54.898Z,19.75
2022-09-17T06:44:58.845Z,18.70
2022-09-17T06:50:06.244Z,25.63
2022-09-17T06:55:08.340Z,14.05
2022-09-17T07:00:16.608Z,16.17
2022-09-17T07:05:19.432Z,17.45
2022-09-17T07:10:24.970Z,17.83
2022-09-17T07:15:32.533Z,12.77
2022-09-17T07:20:36.765Z,11.05
2022-09-17T07:25:42.182Z,10.98
2022-09-17T07:30:56.281Z,11.85
2022-09-17T07:36:01.001Z,9.40
2022-09-17T07:41:12.923Z,12.00
2022-09-17T07:46:18.020Z,5.97
2022-09-17T07:51:29.415Z,8.55
2022-09-17T07:56:31.749Z,10.63
2022-09-17T08:01:38.915Z,10.05
2022-09-17T08:06:48.436Z,9.45
2022-09-17T08:11:55.972Z,15.85
2022-09-17T08:16:58.837Z,10.13
2022-09-17T08:22:13.162Z,13.50
2022-09-17T08:27:15.030Z,16.23
2022-09-17T08:32:21.895Z,12.87
2022-09-17T08:37:30.912Z,11.68
2022-09-17T08:42:40.096Z,6.93
2022-09-17T08:47:43.529Z,6.33
2022-09-17T08:53:24.230Z,3.50
2022-09-17T08:58:43.411Z,3.55
2022-09-17T09:04:19.586Z,9.87
2022-09-17T09:09:26.848Z,14.67
2022-09-17T09:14:43.300Z,14.47
2022-09-17T09:19:47.570Z,10.30
2022-09-17T09:25:02.605Z,14.10
2022-09-17T09:30:14.342Z,15.83
2022-09-17T09:35:23.636Z,24.25
2022-09-17T09:40:45.258Z,20.80
2022-09-17T09:46:09.374Z,24.55
2022-09-17T09:51:45.584Z,15.00
2022-09-17T09:56:55.847Z,6.68
2022-09-17T10:01:58.188Z,8.38
2022-09-17T10:07:09.999Z,9.67
2022-09-17T10:12:14.172Z,5.90
2022-09-17T10:17:27.396Z,9.23
2022-09-17T10:22:44.721Z,14.27
2022-09-17T10:27:52.835Z,16.85
2022-09-17T10:33:17.530Z,22.77
2022-09-17T10:38:36.684Z,16.52
2022-09-17T10:43:56.084Z,17.95
2022-09-17T10:49:42.502Z,20.17
2022-09-17T10:55:18.914Z,24.90
2022-09-17T11:00:26.711Z,27.98
2022-09-17T11:05:31.469Z,24.27
2022-09-17T11:10:51.351Z,19.50
2022-09-17T11:16:01.500Z,12.02
2022-09-17T11:21:27.497Z,14.70
2022-09-17T11:26:29.159Z,18.23
2022-09-17T11:31:39.441Z,15.70
2022-09-17T11:36:55.422Z,19.48
2022-09-17T11:41:59.146Z,12.77
2022-09-17T11:47:23.996Z,11.15
2022-09-17T11:52:39.544Z,14.95
2022-09-17T11:57:44.814Z,16.65
2022-09-17T12:02:51.730Z,18.98
2022-09-17T12:08:06.346Z,16.15
2022-09-17T12:13:28.172Z,23.75
2022-09-17T12:18:50.475Z,19.38
2022-09-17T12:24:26.436Z,21.38
2022-09-17T12:29:33.514Z,15.57
2022-09-17T12:35:02.857Z,12.85
2022-09-17T12:40:34.260Z,16.17
2022-09-17T12:45:36.529Z,11.55
2022-09-17T12:51:01.805Z,13.80
2022-09-17T12:56:16.885Z,16.45
2022-09-17T13:01:33.474Z,19.10
2022-09-17T13:06:54.815Z,15.77
2022-09-17T13:12:09.290Z,18.92
2022-09-17T13:17:41.675Z,13.88
2022-09-17T13:22:49.501Z,15.02
2022-09-17T13:28:11.459Z,16.60
2022-09-17T13:33:50.349Z,21.27
2022-09-17T13:38:55.118Z,17.00
2022-09-17T13:43:57.597Z,21.50
2022-09-17T13:49:14.827Z,13.15
2022-09-17T13:54:20.664Z,16.08
2022-09-17T13:59:28.650Z,17.55
2022-09-17T14:04:35.798Z,23.38
2022-09-17T14:09:56.622Z,16.42
2022-09-17T14:15:02.636Z,12.10
2022-09-17T14:20:06.150Z,9.40
2022-09-17T14:25:21.815Z,9.02
2022-09-17T14:30:29.760Z,10.15
2022-09-17T14:35:38.028Z,15.18
2022-09-17T14:40:45.387Z,14.68
2022-09-17T14:45:50.558Z,15.40
2022-09-17T14:50:54.763Z,18.77
2022-09-17T14:55:58.839Z,14.20
2022-09-17T15:01:00.999Z,16.88
2022-09-17T15:06:05.252Z,18.17
2022-09-17T15:11:14.270Z,17.30
2022-09-17T15:16:16.142Z,17.30
2022-09-17T15:21:36.447Z,24.75
2022-09-17T15:26:45.568Z,21.67
2022-09-17T15:31:47.449Z,13.70
2022-09-17T15:37:17.464Z,14.38
2022-09-17T15:42:29.290Z,24.58
2022-09-17T15:47:55.453Z,20.77
2022-09-17T15:53:09.521Z,19.95
2022-09-17T15:58:30.020Z,29.40
2022-09-17T16:04:03.046Z,27.40
2022-09-17T16:09:37.890Z,32.95
2022-09-17T16:14:46.144Z,25.85
2022-09-17T16:19:50.328Z,21.80
2022-09-17T16:24:53.156Z,23.20
2022-09-17T16:30:01.679Z,18.73
2022-09-17T16:35:07.212Z,14.68
2022-09-17T16:40:14.806Z,22.60
2022-09-17T16:45:17.715Z,18.10
2022-09-17T16:50:21.014Z,15.35
2022-09-17T16:55:27.615Z,21.42
2022-09-17T17:00:29.432Z,14.73
2022-09-17T17:05:40.615Z,21.73
2022-09-17T17:10:47.103Z,20.52
2022-09-17T17:15:52.577Z,21.38
2022-09-17T17:20:55.289Z,18.50
2022-09-17T17:26:04.351Z,18.98
2022-09-17T17:31:06.570Z,18.35
2022-09-17T17:36:11.434Z,19.90
2022-09-17T17:41:18.000Z,18.65
2022-09-17T17:46:19.820Z,17.13
2022-09-17T17:51:23.886Z,20.20
2022-09-17T17:56:26.082Z,16.77
2022-09-17T18:01:34.924Z,15.70
2022-09-17T18:06:36.821Z,15.55
2022-09-17T18:11:38.689Z,14.18
2022-09-17T18:16:40.919Z,10.35
2022-09-17T18:21:43.841Z,8.07
2022-09-17T18:26:47.435Z,14.98
2022-09-17T18:31:51.611Z,8.93
2022-09-17T18:36:53.430Z,16.70
2022-09-17T18:41:55.157Z,16.92
2022-09-17T18:46:59.253Z,14.85
2022-09-17T18:52:07.499Z,14.10
2022-09-17T18:57:12.327Z,13.80
2022-09-17T19:02:14.095Z,14.45
2022-09-17T19:07:19.375Z,16.05
2022-09-17T19:12:24.661Z,18.25
2022-09-17T19:17:29.551Z,15.63
2022-09-17T19:22:31.619Z,18.42
2022-09-17T19:27:34.090Z,18.65
2022-09-17T19:32:35.996Z,18.65
2022-09-17T19:37:37.868Z,15.27
2022-09-17T19:42:41.792Z,15.60
2022-09-17T19:47:43.629Z,19.48
2022-09-17T19:52:47.992Z,17.60
2022-09-17T19:57:50.975Z,19.23
2022-09-17T20:02:53.019Z,19.98
2022-09-17T20:07:55.016Z,13.75
2022-09-17T20:12:59.530Z,15.32
2022-09-17T20:18:02.590Z,17.63
2022-09-17T20:23:04.678Z,19.20
2022-09-17T20:28:06.509Z,21.23
2022-09-17T20:33:10.661Z,16.48
2022-09-17T20:43:42.235Z,10.35
2022-09-17T20:48:44.251Z,15.00
2022-09-17T20:53:51.266Z,15.25
2022-09-17T20:59:09.424Z,13.40
2022-09-17T21:04:21.899Z,14.57
2022-09-17T21:09:24.436Z,15.37
2022-09-17T21:14:28.723Z,10.52
2022-09-17T21:19:38.814Z,11.90
2022-09-17T21:24:43.019Z,7.90
2022-09-17T21:29:45.781Z,6.43
2022-09-17T21:34:54.722Z,9.18
2022-09-17T21:39:59.398Z,10.45
2022-09-17T21:45:01.508Z,10.93
2022-09-17T21:50:03.942Z,13.10
2022-09-17T21:55:09.533Z,10.82
2022-09-17T22:00:22.610Z,12.27
2022-09-17T22:05:32.804Z,15.35
2022-09-17T22:10:36.804Z,14.32
2022-09-17T22:15:38.654Z,14.50
2022-09-17T22:20:43.889Z,13.70
2022-09-17T22:25:50.400Z,9.75
2022-09-17T22:30:54.717Z,9.50
2022-09-17T22:36:02.845Z,12.82
2022-09-17T22:41:10.025Z,18.98
2022-09-17T22:46:16.291Z,18.50
2022-09-17T22:51:19.012Z,19.40
2022-09-17T22:56:23.347Z,13.00
2022-09-17T23:01:31.269Z,19.60
2022-09-17T23:06:35.513Z,20.83
2022-09-17T23:11:38.871Z,22.53
2022-09-17T23:16:43.081Z,15.23
2022-09-17T23:21:45.238Z,12.83
2022-09-17T23:26:47.100Z,18.57
2022-09-17T23:31:49.000Z,15.73
2022-09-17T23:36:53.205Z,14.23
2022-09-17T23:41:57.162Z,9.80
2022-09-17T23:47:03.731Z,18.43
2022-09-17T23:52:08.738Z,15.77
2022-09-17T23:57:13.856Z,24.83
